sensor_id;sensor_type;location;lat;lon;timestamp;pressure;altitude;pressure_sealevel;temperature;humidity
24234;BME280;12365;43.554;1.388;2023-12-29T00:01:30;100571.81;;;10.70;66.62
24234;BME280;12365;43.554;1.388;2023-12-29T00:03:56;100566.50;;;10.68;66.43
24234;BME280;12365;43.554;1.388;2023-12-29T00:06:21;100570.63;;;10.65;66.63
24234;BME280;12365;43.554;1.388;2023-12-29T00:08:47;100567.75;;;10.60;66.75
24234;BME280;12365;43.554;1.388;2023-12-29T00:11:22;100566.50;;;10.53;66.47
24234;BME280;12365;43.554;1.388;2023-12-29T00:13:47;100565.22;;;10.47;66.42
24234;BME280;12365;43.554;1.388;2023-12-29T00:16:13;100555.31;;;10.41;66.71
24234;BME280;12365;43.554;1.388;2023-12-29T00:18:38;100554.19;;;10.37;66.92
24234;BME280;12365;43.554;1.388;2023-12-29T00:21:05;100556.53;;;10.33;66.81
24234;BME280;12365;43.554;1.388;2023-12-29T00:23:30;100552.00;;;10.30;66.77
24234;BME280;12365;43.554;1.388;2023-12-29T00:25:55;100553.50;;;10.27;66.59
24234;BME280;12365;43.554;1.388;2023-12-29T00:28:21;100553.22;;;10.22;66.50
24234;BME280;12365;43.554;1.388;2023-12-29T00:30:46;100553.94;;;10.19;66.47
24234;BME280;12365;43.554;1.388;2023-12-29T00:33:12;100559.06;;;10.18;66.79
24234;BME280;12365;43.554;1.388;2023-12-29T00:35:38;100549.25;;;10.14;66.61
24234;BME280;12365;43.554;1.388;2023-12-29T00:38:04;100539.63;;;10.13;66.81
24234;BME280;12365;43.554;1.388;2023-12-29T00:40:30;100542.03;;;10.10;66.87
24234;BME280;12365;43.554;1.388;2023-12-29T00:42:56;100535.84;;;10.08;66.64
24234;BME280;12365;43.554;1.388;2023-12-29T00:45:21;100532.25;;;10.06;66.65
24234;BME280;12365;43.554;1.388;2023-12-29T00:47:46;100533.03;;;10.05;66.86
24234;BME280;12365;43.554;1.388;2023-12-29T00:50:13;100545.09;;;10.03;66.50
24234;BME280;12365;43.554;1.388;2023-12-29T00:52:39;100537.88;;;9.98;66.71
24234;BME280;12365;43.554;1.388;2023-12-29T00:55:05;100534.25;;;9.96;66.99
24234;BME280;12365;43.554;1.388;2023-12-29T00:57:30;100542.91;;;9.95;66.94
24234;BME280;12365;43.554;1.388;2023-12-29T00:59:56;100539.47;;;9.96;66.61
24234;BME280;12365;43.554;1.388;2023-12-29T01:02:21;100532.25;;;9.92;66.64
24234;BME280;12365;43.554;1.388;2023-12-29T01:04:46;100533.78;;;9.89;66.77
24234;BME280;12365;43.554;1.388;2023-12-29T01:07:12;100536.91;;;9.83;66.70
24234;BME280;12365;43.554;1.388;2023-12-29T01:09:38;100540.94;;;9.78;66.45
24234;BME280;12365;43.554;1.388;2023-12-29T01:12:05;100541.47;;;9.72;66.90
24234;BME280;12365;43.554;1.388;2023-12-29T01:14:31;100545.38;;;9.66;66.86
24234;BME280;12365;43.554;1.388;2023-12-29T01:16:56;100551.88;;;9.59;66.57
24234;BME280;12365;43.554;1.388;2023-12-29T01:19:22;100565.59;;;9.57;66.98
24234;BME280;12365;43.554;1.388;2023-12-29T01:21:47;100561.91;;;9.53;67.09
24234;BME280;12365;43.554;1.388;2023-12-29T01:24:12;100566.94;;;9.50;66.88
24234;BME280;12365;43.554;1.388;2023-12-29T01:26:38;100558.91;;;9.47;66.74
24234;BME280;12365;43.554;1.388;2023-12-29T01:29:04;100556.22;;;9.45;67.02
24234;BME280;12365;43.554;1.388;2023-12-29T01:31:30;100557.81;;;9.43;66.83
24234;BME280;12365;43.554;1.388;2023-12-29T01:33:58;100557.63;;;9.40;66.98
24234;BME280;12365;43.554;1.388;2023-12-29T01:36:24;100565.44;;;9.40;66.97
24234;BME280;12365;43.554;1.388;2023-12-29T01:38:49;100561.00;;;9.39;66.96
24234;BME280;12365;43.554;1.388;2023-12-29T01:41:15;100571.41;;;9.39;66.73
24234;BME280;12365;43.554;1.388;2023-12-29T01:46:25;100559.72;;;9.32;66.94
24234;BME280;12365;43.554;1.388;2023-12-29T01:48:52;100559.59;;;9.31;66.81
24234;BME280;12365;43.554;1.388;2023-12-29T01:51:20;100564.63;;;9.28;66.92
24234;BME280;12365;43.554;1.388;2023-12-29T01:53:46;100550.59;;;9.26;66.82
24234;BME280;12365;43.554;1.388;2023-12-29T01:56:13;100553.13;;;9.24;66.51
24234;BME280;12365;43.554;1.388;2023-12-29T01:58:39;100558.22;;;9.23;66.81
24234;BME280;12365;43.554;1.388;2023-12-29T02:01:06;100559.91;;;9.22;66.81
24234;BME280;12365;43.554;1.388;2023-12-29T02:03:33;100557.19;;;9.21;66.71
24234;BME280;12365;43.554;1.388;2023-12-29T02:05:59;100564.94;;;9.19;66.64
24234;BME280;12365;43.554;1.388;2023-12-29T02:08:24;100558.59;;;9.16;66.52
24234;BME280;12365;43.554;1.388;2023-12-29T02:10:50;100566.22;;;9.13;66.70
24234;BME280;12365;43.554;1.388;2023-12-29T02:13:16;100565.22;;;9.10;66.71
24234;BME280;12365;43.554;1.388;2023-12-29T02:15:41;100563.22;;;9.06;66.38
24234;BME280;12365;43.554;1.388;2023-12-29T02:18:10;100557.78;;;9.03;66.77
24234;BME280;12365;43.554;1.388;2023-12-29T02:20:43;100552.56;;;9.03;66.47
24234;BME280;12365;43.554;1.388;2023-12-29T02:23:08;100546.38;;;9.01;66.48
24234;BME280;12365;43.554;1.388;2023-12-29T02:25:35;100549.59;;;8.97;66.68
24234;BME280;12365;43.554;1.388;2023-12-29T02:28:13;100557.38;;;8.97;66.29
24234;BME280;12365;43.554;1.388;2023-12-29T02:30:49;100552.00;;;8.94;66.56
24234;BME280;12365;43.554;1.388;2023-12-29T02:33:22;100555.38;;;8.93;66.60
24234;BME280;12365;43.554;1.388;2023-12-29T02:35:52;100550.09;;;8.92;66.49
24234;BME280;12365;43.554;1.388;2023-12-29T02:38:18;100543.16;;;8.92;66.53
24234;BME280;12365;43.554;1.388;2023-12-29T02:40:43;100537.97;;;8.92;66.81
24234;BME280;12365;43.554;1.388;2023-12-29T02:43:09;100528.25;;;8.89;66.54
24234;BME280;12365;43.554;1.388;2023-12-29T02:45:35;100524.75;;;8.89;66.41
24234;BME280;12365;43.554;1.388;2023-12-29T02:48:00;100516.72;;;8.86;66.58
24234;BME280;12365;43.554;1.388;2023-12-29T02:50:25;100508.84;;;8.84;66.46
24234;BME280;12365;43.554;1.388;2023-12-29T02:52:51;100497.53;;;8.84;66.31
24234;BME280;12365;43.554;1.388;2023-12-29T02:55:16;100498.50;;;8.86;66.49
24234;BME280;12365;43.554;1.388;2023-12-29T02:57:42;100493.22;;;8.84;66.44
24234;BME280;12365;43.554;1.388;2023-12-29T03:00:07;100487.13;;;8.84;66.37
24234;BME280;12365;43.554;1.388;2023-12-29T03:02:33;100502.75;;;8.84;66.50
24234;BME280;12365;43.554;1.388;2023-12-29T03:04:59;100491.31;;;8.82;66.29
24234;BME280;12365;43.554;1.388;2023-12-29T03:07:25;100492.09;;;8.81;66.35
24234;BME280;12365;43.554;1.388;2023-12-29T03:09:50;100485.22;;;8.81;66.37
24234;BME280;12365;43.554;1.388;2023-12-29T03:12:16;100485.09;;;8.80;66.32
24234;BME280;12365;43.554;1.388;2023-12-29T03:14:41;100478.13;;;8.79;66.36
24234;BME280;12365;43.554;1.388;2023-12-29T03:17:07;100481.63;;;8.79;66.55
24234;BME280;12365;43.554;1.388;2023-12-29T03:19:32;100477.31;;;8.80;66.43
24234;BME280;12365;43.554;1.388;2023-12-29T03:21:57;100479.91;;;8.80;66.37
24234;BME280;12365;43.554;1.388;2023-12-29T03:24:23;100475.41;;;8.77;66.32
24234;BME280;12365;43.554;1.388;2023-12-29T03:26:48;100465.88;;;8.78;66.71
24234;BME280;12365;43.554;1.388;2023-12-29T03:29:13;100464.88;;;8.76;66.50
24234;BME280;12365;43.554;1.388;2023-12-29T03:31:39;100460.69;;;8.78;66.48
24234;BME280;12365;43.554;1.388;2023-12-29T03:34:05;100452.88;;;8.78;66.77
24234;BME280;12365;43.554;1.388;2023-12-29T03:36:30;100451.09;;;8.77;66.46
24234;BME280;12365;43.554;1.388;2023-12-29T03:38:55;100451.78;;;8.74;66.48
24234;BME280;12365;43.554;1.388;2023-12-29T03:41:21;100459.47;;;8.73;66.35
24234;BME280;12365;43.554;1.388;2023-12-29T03:43:46;100456.69;;;8.70;66.58
24234;BME280;12365;43.554;1.388;2023-12-29T03:46:18;100454.66;;;8.65;66.65
24234;BME280;12365;43.554;1.388;2023-12-29T03:48:44;100458.97;;;8.65;66.76
24234;BME280;12365;43.554;1.388;2023-12-29T03:51:10;100457.28;;;8.65;66.61
24234;BME280;12365;43.554;1.388;2023-12-29T03:53:35;100458.66;;;8.60;66.84
24234;BME280;12365;43.554;1.388;2023-12-29T03:56:17;100455.88;;;8.57;67.27
24234;BME280;12365;43.554;1.388;2023-12-29T03:58:46;100454.06;;;8.56;67.25
24234;BME280;12365;43.554;1.388;2023-12-29T04:01:15;100460.06;;;8.55;67.41
24234;BME280;12365;43.554;1.388;2023-12-29T04:03:42;100455.66;;;8.54;67.18
24234;BME280;12365;43.554;1.388;2023-12-29T04:06:08;100463.56;;;8.56;67.23
24234;BME280;12365;43.554;1.388;2023-12-29T04:08:34;100462.66;;;8.55;67.12
24234;BME280;12365;43.554;1.388;2023-12-29T04:10:59;100457.47;;;8.55;67.34
24234;BME280;12365;43.554;1.388;2023-12-29T04:13:25;100458.28;;;8.54;67.38
24234;BME280;12365;43.554;1.388;2023-12-29T04:15:50;100457.47;;;8.55;67.56
24234;BME280;12365;43.554;1.388;2023-12-29T04:18:16;100454.97;;;8.57;67.24
24234;BME280;12365;43.554;1.388;2023-12-29T04:20:42;100454.16;;;8.58;67.29
24234;BME280;12365;43.554;1.388;2023-12-29T04:23:07;100454.28;;;8.59;67.43
24234;BME280;12365;43.554;1.388;2023-12-29T04:25:33;100458.66;;;8.60;67.54
24234;BME280;12365;43.554;1.388;2023-12-29T04:27:59;100447.47;;;8.61;67.34
24234;BME280;12365;43.554;1.388;2023-12-29T04:30:24;100444.75;;;8.60;67.37
24234;BME280;12365;43.554;1.388;2023-12-29T04:32:50;100444.97;;;8.63;67.49
24234;BME280;12365;43.554;1.388;2023-12-29T04:35:15;100443.19;;;8.62;67.37
24234;BME280;12365;43.554;1.388;2023-12-29T04:37:43;100439.75;;;8.63;67.36
24234;BME280;12365;43.554;1.388;2023-12-29T04:40:09;100440.47;;;8.60;67.42
24234;BME280;12365;43.554;1.388;2023-12-29T04:42:34;100436.06;;;8.59;67.36
24234;BME280;12365;43.554;1.388;2023-12-29T04:45:00;100436.06;;;8.59;67.40
24234;BME280;12365;43.554;1.388;2023-12-29T04:47:25;100437.78;;;8.59;67.44
24234;BME280;12365;43.554;1.388;2023-12-29T04:49:51;100437.78;;;8.59;67.58
24234;BME280;12365;43.554;1.388;2023-12-29T04:52:16;100434.38;;;8.60;67.36
24234;BME280;12365;43.554;1.388;2023-12-29T04:54:41;100442.28;;;8.61;67.49
24234;BME280;12365;43.554;1.388;2023-12-29T04:57:07;100437.84;;;8.60;67.37
24234;BME280;12365;43.554;1.388;2023-12-29T04:59:32;100436.28;;;8.62;67.67
24234;BME280;12365;43.554;1.388;2023-12-29T05:01:57;100426.75;;;8.63;67.38
24234;BME280;12365;43.554;1.388;2023-12-29T05:04:23;100418.88;;;8.61;67.46
24234;BME280;12365;43.554;1.388;2023-12-29T05:06:48;100426.88;;;8.64;67.41
24234;BME280;12365;43.554;1.388;2023-12-29T05:09:13;100426.06;;;8.65;67.39
24234;BME280;12365;43.554;1.388;2023-12-29T05:11:39;100418.38;;;8.67;67.58
24234;BME280;12365;43.554;1.388;2023-12-29T05:14:04;100427.25;;;8.71;67.42
24234;BME280;12365;43.554;1.388;2023-12-29T05:16:30;100434.28;;;8.72;67.50
24234;BME280;12365;43.554;1.388;2023-12-29T05:18:55;100426.56;;;8.73;67.51
24234;BME280;12365;43.554;1.388;2023-12-29T05:21:21;100427.50;;;8.74;67.50
24234;BME280;12365;43.554;1.388;2023-12-29T05:23:46;100425.84;;;8.76;67.45
24234;BME280;12365;43.554;1.388;2023-12-29T05:26:13;100428.38;;;8.74;67.72
24234;BME280;12365;43.554;1.388;2023-12-29T05:28:39;100418.75;;;8.73;67.66
24234;BME280;12365;43.554;1.388;2023-12-29T05:31:04;100424.88;;;8.74;67.79
24234;BME280;12365;43.554;1.388;2023-12-29T05:33:33;100414.47;;;8.74;67.71
24234;BME280;12365;43.554;1.388;2023-12-29T05:35:58;100420.47;;;8.73;67.51
24234;BME280;12365;43.554;1.388;2023-12-29T05:38:25;100412.56;;;8.71;67.68
24234;BME280;12365;43.554;1.388;2023-12-29T05:40:50;100410.88;;;8.72;67.65
24234;BME280;12365;43.554;1.388;2023-12-29T05:43:16;100417.78;;;8.71;67.57
24234;BME280;12365;43.554;1.388;2023-12-29T05:45:41;100409.88;;;8.70;67.69
24234;BME280;12365;43.554;1.388;2023-12-29T05:48:07;100409.88;;;8.70;67.55
24234;BME280;12365;43.554;1.388;2023-12-29T05:50:33;100418.47;;;8.68;67.61
24234;BME280;12365;43.554;1.388;2023-12-29T05:52:58;100416.66;;;8.67;67.54
24234;BME280;12365;43.554;1.388;2023-12-29T05:55:24;100421.97;;;8.69;67.86
24234;BME280;12365;43.554;1.388;2023-12-29T05:57:49;100422.88;;;8.70;67.61
24234;BME280;12365;43.554;1.388;2023-12-29T06:00:15;100422.06;;;8.71;67.73
24234;BME280;12365;43.554;1.388;2023-12-29T06:02:41;100426.47;;;8.72;67.89
24234;BME280;12365;43.554;1.388;2023-12-29T06:05:08;100426.38;;;8.70;67.77
24234;BME280;12365;43.554;1.388;2023-12-29T06:07:35;100408.09;;;8.68;67.63
24234;BME280;12365;43.554;1.388;2023-12-29T06:10:00;100415.06;;;8.70;67.96
24234;BME280;12365;43.554;1.388;2023-12-29T06:12:25;100411.66;;;8.71;67.97
24234;BME280;12365;43.554;1.388;2023-12-29T06:14:51;100416.06;;;8.72;67.68
24234;BME280;12365;43.554;1.388;2023-12-29T06:17:16;100416.06;;;8.72;67.87
24234;BME280;12365;43.554;1.388;2023-12-29T06:19:42;100429.09;;;8.72;67.93
24234;BME280;12365;43.554;1.388;2023-12-29T06:22:07;100425.66;;;8.73;67.71
24234;BME280;12365;43.554;1.388;2023-12-29T06:24:42;100420.47;;;8.73;67.81
24234;BME280;12365;43.554;1.388;2023-12-29T06:27:11;100410.16;;;8.74;67.93
24234;BME280;12365;43.554;1.388;2023-12-29T06:29:37;100411.06;;;8.75;67.97
24234;BME280;12365;43.554;1.388;2023-12-29T06:32:03;100416.38;;;8.76;68.00
24234;BME280;12365;43.554;1.388;2023-12-29T06:34:29;100410.25;;;8.76;67.76
24234;BME280;12365;43.554;1.388;2023-12-29T06:36:54;100419.88;;;8.77;68.02
24234;BME280;12365;43.554;1.388;2023-12-29T06:39:20;100421.66;;;8.78;68.06
24234;BME280;12365;43.554;1.388;2023-12-29T06:41:45;100422.66;;;8.80;67.85
24234;BME280;12365;43.554;1.388;2023-12-29T06:44:11;100423.69;;;8.82;67.99
24234;BME280;12365;43.554;1.388;2023-12-29T06:46:39;100428.06;;;8.83;68.08
24234;BME280;12365;43.554;1.388;2023-12-29T06:49:07;100424.75;;;8.85;68.31
24234;BME280;12365;43.554;1.388;2023-12-29T06:51:33;100433.38;;;8.84;68.09
24234;BME280;12365;43.554;1.388;2023-12-29T06:53:59;100431.69;;;8.85;68.14
24234;BME280;12365;43.554;1.388;2023-12-29T06:56:25;100429.97;;;8.85;68.03
24234;BME280;12365;43.554;1.388;2023-12-29T06:58:51;100431.88;;;8.88;67.93
24234;BME280;12365;43.554;1.388;2023-12-29T07:01:16;100435.38;;;8.88;68.06
24234;BME280;12365;43.554;1.388;2023-12-29T07:03:42;100438.91;;;8.89;67.97
24234;BME280;12365;43.554;1.388;2023-12-29T07:06:07;100431.09;;;8.89;67.96
24234;BME280;12365;43.554;1.388;2023-12-29T07:08:33;100430.28;;;8.90;67.98
24234;BME280;12365;43.554;1.388;2023-12-29T07:10:59;100428.38;;;8.87;68.05
24234;BME280;12365;43.554;1.388;2023-12-29T07:13:24;100434.47;;;8.88;67.89
24234;BME280;12365;43.554;1.388;2023-12-29T07:15:50;100442.28;;;8.88;68.19
24234;BME280;12365;43.554;1.388;2023-12-29T07:18:15;100440.50;;;8.87;67.76
24234;BME280;12365;43.554;1.388;2023-12-29T07:20:41;100441.19;;;8.84;67.97
24234;BME280;12365;43.554;1.388;2023-12-29T07:23:07;100449.78;;;8.83;67.87
24234;BME280;12365;43.554;1.388;2023-12-29T07:25:32;100455.91;;;8.84;68.11
24234;BME280;12365;43.554;1.388;2023-12-29T07:27:58;100456.81;;;8.84;68.08
24234;BME280;12365;43.554;1.388;2023-12-29T07:30:23;100461.88;;;8.83;68.08
24234;BME280;12365;43.554;1.388;2023-12-29T07:32:49;100459.28;;;8.83;67.90
24234;BME280;12365;43.554;1.388;2023-12-29T07:35:14;100459.28;;;8.83;68.13
24234;BME280;12365;43.554;1.388;2023-12-29T07:37:43;100453.31;;;8.84;67.94
24234;BME280;12365;43.554;1.388;2023-12-29T07:40:10;100453.31;;;8.84;67.96
24234;BME280;12365;43.554;1.388;2023-12-29T07:42:36;100449.69;;;8.82;67.95
24234;BME280;12365;43.554;1.388;2023-12-29T07:45:01;100454.09;;;8.83;68.19
24234;BME280;12365;43.554;1.388;2023-12-29T07:47:26;100455.91;;;8.84;68.27
24234;BME280;12365;43.554;1.388;2023-12-29T07:49:52;100457.69;;;8.85;68.18
24234;BME280;12365;43.554;1.388;2023-12-29T07:52:17;100460.28;;;8.85;68.06
24234;BME280;12365;43.554;1.388;2023-12-29T07:54:43;100458.59;;;8.85;68.18
24234;BME280;12365;43.554;1.388;2023-12-29T07:57:08;100457.81;;;8.86;68.18
24234;BME280;12365;43.554;1.388;2023-12-29T07:59:33;100460.91;;;8.94;68.04
24234;BME280;12365;43.554;1.388;2023-12-29T08:01:59;100463.09;;;9.01;67.50
24234;BME280;12365;43.554;1.388;2023-12-29T08:04:24;100465.69;;;9.01;67.76
24234;BME280;12365;43.554;1.388;2023-12-29T08:06:49;100464.00;;;9.02;67.39
24234;BME280;12365;43.554;1.388;2023-12-29T08:09:15;100483.31;;;9.05;67.38
24234;BME280;12365;43.554;1.388;2023-12-29T08:11:40;100488.63;;;9.07;67.45
24234;BME280;12365;43.554;1.388;2023-12-29T08:14:08;100490.34;;;9.06;67.70
24234;BME280;12365;43.554;1.388;2023-12-29T08:16:40;100494.72;;;9.07;67.46
24234;BME280;12365;43.554;1.388;2023-12-29T08:19:06;100492.31;;;9.10;67.37
24234;BME280;12365;43.554;1.388;2023-12-29T08:21:32;100490.72;;;9.13;67.58
24234;BME280;12365;43.554;1.388;2023-12-29T08:23:57;100485.91;;;9.05;67.82
24234;BME280;12365;43.554;1.388;2023-12-29T08:26:22;100490.13;;;9.03;67.87
24234;BME280;12365;43.554;1.388;2023-12-29T08:28:48;100500.53;;;9.03;68.05
24234;BME280;12365;43.554;1.388;2023-12-29T08:31:14;100492.94;;;9.06;68.12
24234;BME280;12365;43.554;1.388;2023-12-29T08:33:40;100493.13;;;9.09;67.94
24234;BME280;12365;43.554;1.388;2023-12-29T08:36:05;100501.34;;;9.16;68.14
24234;BME280;12365;43.554;1.388;2023-12-29T08:38:31;100507.75;;;9.21;68.14
24234;BME280;12365;43.554;1.388;2023-12-29T08:40:57;100512.25;;;9.23;67.99
24234;BME280;12365;43.554;1.388;2023-12-29T08:43:23;100509.03;;;9.27;67.85
24234;BME280;12365;43.554;1.388;2023-12-29T08:45:48;100515.44;;;9.32;68.07
24234;BME280;12365;43.554;1.388;2023-12-29T08:48:14;100517.53;;;9.38;67.80
24234;BME280;12365;43.554;1.388;2023-12-29T08:50:39;100525.75;;;9.44;67.99
24234;BME280;12365;43.554;1.388;2023-12-29T08:53:05;100526.16;;;9.50;67.83
24234;BME280;12365;43.554;1.388;2023-12-29T08:55:30;100533.56;;;9.58;68.09
24234;BME280;12365;43.554;1.388;2023-12-29T08:57:57;100537.25;;;9.61;67.72
24234;BME280;12365;43.554;1.388;2023-12-29T09:00:22;100540.03;;;9.64;67.70
24234;BME280;12365;43.554;1.388;2023-12-29T09:02:47;100549.88;;;9.68;67.89
24234;BME280;12365;43.554;1.388;2023-12-29T09:05:13;100546.56;;;9.71;67.80
24234;BME280;12365;43.554;1.388;2023-12-29T09:07:38;100523.22;;;9.72;67.64
24234;BME280;12365;43.554;1.388;2023-12-29T09:10:04;100515.66;;;9.77;67.88
24234;BME280;12365;43.554;1.388;2023-12-29T09:12:36;100502.63;;;9.77;67.87
24234;BME280;12365;43.554;1.388;2023-12-29T09:15:02;100489.81;;;9.80;67.90
24234;BME280;12365;43.554;1.388;2023-12-29T09:17:28;100482.09;;;9.82;67.77
24234;BME280;12365;43.554;1.388;2023-12-29T09:19:53;100495.22;;;9.83;67.82
24234;BME280;12365;43.554;1.388;2023-12-29T09:22:20;100512.75;;;9.86;67.78
24234;BME280;12365;43.554;1.388;2023-12-29T09:24:45;100532.84;;;10.02;67.27
24234;BME280;12365;43.554;1.388;2023-12-29T09:27:10;100536.81;;;10.10;67.29
24234;BME280;12365;43.554;1.388;2023-12-29T09:29:36;100535.50;;;10.16;67.31
24234;BME280;12365;43.554;1.388;2023-12-29T09:32:02;100528.97;;;10.23;67.44
24234;BME280;12365;43.554;1.388;2023-12-29T09:34:27;100541.69;;;10.32;67.08
24234;BME280;12365;43.554;1.388;2023-12-29T09:36:53;100549.16;;;10.40;67.16
24234;BME280;12365;43.554;1.388;2023-12-29T09:39:18;100558.28;;;10.47;66.98
24234;BME280;12365;43.554;1.388;2023-12-29T09:41:46;100551.63;;;10.52;67.11
24234;BME280;12365;43.554;1.388;2023-12-29T09:44:14;100553.69;;;10.58;66.96
24234;BME280;12365;43.554;1.388;2023-12-29T09:46:41;100557.47;;;10.63;67.06
24234;BME280;12365;43.554;1.388;2023-12-29T09:49:08;100558.75;;;10.70;66.79
24234;BME280;12365;43.554;1.388;2023-12-29T09:51:34;100557.22;;;10.73;66.91
24234;BME280;12365;43.554;1.388;2023-12-29T09:54:01;100555.16;;;10.82;66.60
24234;BME280;12365;43.554;1.388;2023-12-29T09:56:27;100559.13;;;10.91;67.00
24234;BME280;12365;43.554;1.388;2023-12-29T09:58:54;100563.13;;;10.99;66.57
24234;BME280;12365;43.554;1.388;2023-12-29T10:01:20;100558.41;;;11.08;66.63
24234;BME280;12365;43.554;1.388;2023-12-29T10:03:48;100549.41;;;11.18;66.73
24234;BME280;12365;43.554;1.388;2023-12-29T10:06:16;100549.22;;;11.30;66.66
24234;BME280;12365;43.554;1.388;2023-12-29T10:08:45;100560.34;;;11.42;66.49
24234;BME280;12365;43.554;1.388;2023-12-29T10:11:13;100556.38;;;11.48;66.23
24234;BME280;12365;43.554;1.388;2023-12-29T10:13:42;100557.28;;;11.49;66.10
24234;BME280;12365;43.554;1.388;2023-12-29T10:16:20;100560.81;;;11.49;66.25
24234;BME280;12365;43.554;1.388;2023-12-29T10:19:37;100561.78;;;11.52;66.08
24234;BME280;12365;43.554;1.388;2023-12-29T10:21:46;100552.41;;;11.55;66.13
24234;BME280;12365;43.554;1.388;2023-12-29T10:24:21;100554.19;;;11.56;66.00
24234;BME280;12365;43.554;1.388;2023-12-29T10:26:47;100555.28;;;11.60;65.90
24234;BME280;12365;43.554;1.388;2023-12-29T10:29:13;100555.34;;;11.61;65.88
24234;BME280;12365;43.554;1.388;2023-12-29T10:31:39;100557.25;;;11.64;65.83
24234;BME280;12365;43.554;1.388;2023-12-29T10:34:23;100547.69;;;11.64;65.93
24234;BME280;12365;43.554;1.388;2023-12-29T10:36:56;100555.78;;;11.69;65.76
24234;BME280;12365;43.554;1.388;2023-12-29T10:39:22;100553.09;;;11.67;65.67
24234;BME280;12365;43.554;1.388;2023-12-29T10:41:48;100561.00;;;11.69;65.65
24234;BME280;12365;43.554;1.388;2023-12-29T10:44:13;100561.75;;;11.66;65.61
24234;BME280;12365;43.554;1.388;2023-12-29T10:46:39;100573.09;;;11.67;65.69
24234;BME280;12365;43.554;1.388;2023-12-29T10:49:12;100565.34;;;11.68;65.76
24234;BME280;12365;43.554;1.388;2023-12-29T10:51:38;100559.28;;;11.69;65.68
24234;BME280;12365;43.554;1.388;2023-12-29T10:54:04;100556.88;;;11.73;65.83
24234;BME280;12365;43.554;1.388;2023-12-29T10:56:31;100549.94;;;11.73;65.52
24234;BME280;12365;43.554;1.388;2023-12-29T10:59:00;100545.84;;;11.78;65.61
24234;BME280;12365;43.554;1.388;2023-12-29T11:01:28;100546.00;;;11.81;65.66
24234;BME280;12365;43.554;1.388;2023-12-29T11:04:01;100531.38;;;11.85;65.70
24234;BME280;12365;43.554;1.388;2023-12-29T11:06:28;100528.31;;;11.92;65.52
24234;BME280;12365;43.554;1.388;2023-12-29T11:08:54;100516.59;;;12.00;65.73
24234;BME280;12365;43.554;1.388;2023-12-29T11:11:20;100517.91;;;12.08;65.41
24234;BME280;12365;43.554;1.388;2023-12-29T11:13:46;100514.38;;;12.24;65.51
24234;BME280;12365;43.554;1.388;2023-12-29T11:16:12;100508.41;;;12.43;65.38
24234;BME280;12365;43.554;1.388;2023-12-29T11:18:40;100510.69;;;12.53;65.31
24234;BME280;12365;43.554;1.388;2023-12-29T11:21:08;100513.09;;;12.67;65.19
24234;BME280;12365;43.554;1.388;2023-12-29T11:23:35;100495.69;;;12.85;65.19
24234;BME280;12365;43.554;1.388;2023-12-29T11:26:00;100492.72;;;13.13;65.12
24234;BME280;12365;43.554;1.388;2023-12-29T11:28:27;100492.38;;;13.41;64.77
24234;BME280;12365;43.554;1.388;2023-12-29T11:30:52;100491.59;;;13.62;64.41
24234;BME280;12365;43.554;1.388;2023-12-29T11:33:25;100487.22;;;13.80;64.27
24234;BME280;12365;43.554;1.388;2023-12-29T11:41:37;100476.31;;;14.29;63.80
24234;BME280;12365;43.554;1.388;2023-12-29T11:44:04;100470.91;;;14.46;63.47
24234;BME280;12365;43.554;1.388;2023-12-29T11:46:37;100463.72;;;14.61;63.54
24234;BME280;12365;43.554;1.388;2023-12-29T11:49:03;100463.53;;;14.78;63.21
24234;BME280;12365;43.554;1.388;2023-12-29T11:51:42;100452.69;;;14.91;63.04
24234;BME280;12365;43.554;1.388;2023-12-29T11:54:22;100445.50;;;15.08;63.06
24234;BME280;12365;43.554;1.388;2023-12-29T11:56:48;100447.84;;;15.23;62.71
24234;BME280;12365;43.554;1.388;2023-12-29T11:59:21;100452.06;;;15.40;62.72
24234;BME280;12365;43.554;1.388;2023-12-29T12:01:55;100439.53;;;15.57;62.42
24234;BME280;12365;43.554;1.388;2023-12-29T12:04:40;100439.81;;;15.65;62.35
24234;BME280;12365;43.554;1.388;2023-12-29T12:09:38;100438.91;;;15.85;62.11
24234;BME280;12365;43.554;1.388;2023-12-29T12:12:05;100421.16;;;16.03;61.91
24234;BME280;12365;43.554;1.388;2023-12-29T12:14:53;100416.34;;;16.16;61.87
24234;BME280;12365;43.554;1.388;2023-12-29T12:17:32;100417.56;;;16.25;61.79
24234;BME280;12365;43.554;1.388;2023-12-29T12:20:00;100410.72;;;16.31;61.60
24234;BME280;12365;43.554;1.388;2023-12-29T12:22:30;100415.28;;;16.36;61.40
24234;BME280;12365;43.554;1.388;2023-12-29T12:24:56;100415.50;;;16.42;61.46
24234;BME280;12365;43.554;1.388;2023-12-29T12:27:22;100411.44;;;16.52;61.35
24234;BME280;12365;43.554;1.388;2023-12-29T12:29:52;100408.22;;;16.61;61.22
24234;BME280;12365;43.554;1.388;2023-12-29T12:32:20;100405.88;;;16.70;61.10
24234;BME280;12365;43.554;1.388;2023-12-29T12:34:47;100394.91;;;16.82;61.04
24234;BME280;12365;43.554;1.388;2023-12-29T12:37:12;100398.03;;;16.97;60.83
24234;BME280;12365;43.554;1.388;2023-12-29T12:39:43;100389.66;;;17.10;60.75
24234;BME280;12365;43.554;1.388;2023-12-29T12:42:09;100386.31;;;17.16;60.62
24234;BME280;12365;43.554;1.388;2023-12-29T12:44:38;100379.25;;;17.15;60.50
24234;BME280;12365;43.554;1.388;2023-12-29T12:47:10;100378.31;;;17.13;60.56
24234;BME280;12365;43.554;1.388;2023-12-29T12:49:40;100378.25;;;17.11;60.64
24234;BME280;12365;43.554;1.388;2023-12-29T12:52:05;100370.25;;;17.08;60.50
24234;BME280;12365;43.554;1.388;2023-12-29T12:54:31;100367.38;;;17.01;60.54
24234;BME280;12365;43.554;1.388;2023-12-29T12:56:57;100370.38;;;16.84;60.59
24234;BME280;12365;43.554;1.388;2023-12-29T12:59:22;100362.78;;;16.68;60.75
24234;BME280;12365;43.554;1.388;2023-12-29T13:01:47;100361.53;;;16.57;61.01
24234;BME280;12365;43.554;1.388;2023-12-29T13:04:13;100358.66;;;16.49;61.07
24234;BME280;12365;43.554;1.388;2023-12-29T13:06:43;100354.19;;;16.46;61.26